Time;durP1;ratioP1;P1;durP2;ratioP2;P2;SDS_P1;SDS_P2;PMS_P1;PMS_P2;Temp;Humidity;BMP_temperature;BMP_pressure;BME280_temperature;BME280_humidity;BME280_pressure;Samples;Min_cycle;Max_cycle;Signal;HPM_P1;HPM_P2
2023/01/21 00:02:11;;;;;;;;;11.00;11.00;;;;;3.64;76.35;101047.81;4957409;28;45898;-77
2023/01/21 00:04:39;;;;;;;;;11.25;11.25;;;;;4.32;76.71;101156.03;4957371;28;45241;-77
2023/01/21 00:07:06;;;;;;;;;11.00;10.50;;;;;4.19;76.54;101137.81;4959255;28;45351;-77
2023/01/21 00:09:32;;;;;;;;;9.75;9.75;;;;;4.59;77.03;101207.09;4957731;28;45569;-78
2023/01/21 00:12:01;;;;;;;;;9.50;9.50;;;;;4.53;77.32;101197.59;4957568;28;46178;-78
2023/01/21 00:14:27;;;;;;;;;12.75;12.00;;;;;4.05;77.76;101111.00;4960133;28;45219;-78
2023/01/21 00:16:52;;;;;;;;;11.50;11.50;;;;;4.16;77.85;101156.06;4959925;28;45402;-79
2023/01/21 00:19:18;;;;;;;;;11.00;11.00;;;;;4.08;78.58;101150.91;4959838;28;45525;-78
2023/01/21 00:21:44;;;;;;;;;10.75;10.75;;;;;4.26;78.58;101176.91;4961924;28;46292;-79
2023/01/21 00:24:09;;;;;;;;;12.00;12.00;;;;;4.23;78.20;101182.97;4961426;27;45384;-78
2023/01/21 00:26:34;;;;;;;;;10.00;10.00;;;;;4.34;78.28;101201.16;4961326;28;45755;-79
2023/01/21 00:29:00;;;;;;;;;10.00;10.00;;;;;4.36;78.80;101202.88;4962621;28;45535;-77
2023/01/21 00:31:26;;;;;;;;;11.50;11.50;;;;;4.15;78.60;101166.50;4959231;28;45399;-76
2023/01/21 00:33:52;;;;;;;;;12.00;11.50;;;;;4.34;79.02;101201.16;4959729;28;45418;-75
2023/01/21 00:36:17;;;;;;;;;14.00;14.00;;;;;4.42;78.75;101209.81;4958747;28;45485;-79
2023/01/21 00:38:43;;;;;;;;;8.50;8.50;;;;;4.21;79.14;101169.09;4958088;28;45347;-77
2023/01/21 00:41:11;;;;;;;;;11.00;11.00;;;;;4.14;79.05;101165.63;4959871;28;45404;-77
2023/01/21 00:43:38;;;;;;;;;10.75;10.75;;;;;4.34;78.54;101206.38;4958375;28;45243;-77
2023/01/21 00:46:04;;;;;;;;;10.50;10.50;;;;;4.24;78.44;101187.31;4957051;28;45335;-77
2023/01/21 00:48:30;;;;;;;;;9.75;9.75;;;;;4.30;79.50;101202.06;4956672;28;45396;-78
2023/01/21 00:50:59;;;;;;;;;9.75;9.75;;;;;4.32;79.12;101198.56;4955891;28;45395;-76
2023/01/21 00:53:30;;;;;;;;;8.25;8.25;;;;;4.55;78.97;101235.81;4954045;28;45371;-76
2023/01/21 00:56:19;;;;;;;;;6.25;6.25;;;;;4.31;78.88;101194.22;4955465;28;45352;-74
2023/01/21 00:58:45;;;;;;;;;9.00;9.00;;;;;4.42;78.61;101211.53;4955884;28;45355;-79
2023/01/21 01:01:19;;;;;;;;;5.75;5.75;;;;;4.25;78.80;101181.22;4955728;28;46599;-77
2023/01/21 01:03:46;;;;;;;;;9.00;9.00;;;;;4.43;79.01;101216.75;4956182;28;45486;-77
2023/01/21 01:06:14;;;;;;;;;10.50;10.50;;;;;4.43;78.51;101227.16;4956418;28;45487;-78
2023/01/21 01:08:41;;;;;;;;;20.75;20.75;;;;;4.47;78.58;101223.69;4961548;28;45264;-76
2023/01/21 01:11:07;;;;;;;;;9.00;9.00;;;;;4.50;78.89;101228.00;4965607;28;45464;-77
2023/01/21 01:13:34;;;;;;;;;9.25;9.25;;;;;4.68;79.01;101247.91;4973834;28;45433;-74
2023/01/21 01:16:01;;;;;;;;;9.00;9.00;;;;;4.63;78.78;101236.63;4975433;28;45354;-76
2023/01/21 01:18:28;;;;;;;;;10.00;9.75;;;;;4.63;78.53;101250.50;4974554;28;45605;-73
2023/01/21 01:20:54;;;;;;;;;8.50;8.50;;;;;4.60;78.70;101247.91;4973492;28;45536;-77
2023/01/21 01:23:19;;;;;;;;;9.25;9.25;;;;;4.56;78.50;101246.19;4973388;28;45370;-77
2023/01/21 01:25:55;;;;;;;;;9.00;9.00;;;;;4.62;78.15;101260.97;4973589;28;45537;-74
2023/01/21 01:28:21;;;;;;;;;12.00;12.00;;;;;4.63;78.22;101267.91;4975341;28;45297;-77
2023/01/21 01:30:46;;;;;;;;;11.25;11.25;;;;;4.59;78.55;101264.44;4974022;28;46640;-79
2023/01/21 01:33:11;;;;;;;;;10.00;10.00;;;;;4.56;77.89;101269.66;4975703;28;45392;-70
2023/01/21 01:35:37;;;;;;;;;10.75;10.75;;;;;4.52;77.98;101265.31;4976854;28;62150;-76
2023/01/21 01:38:06;;;;;;;;;11.50;11.50;;;;;4.33;77.98;101226.31;4974987;28;45533;-75
2023/01/21 01:40:33;;;;;;;;;13.00;13.00;;;;;4.56;78.10;101281.81;4974588;28;47194;-77
2023/01/21 01:42:58;;;;;;;;;14.75;13.50;;;;;4.55;78.18;101287.91;4963233;28;45400;-76
2023/01/21 01:45:24;;;;;;;;;16.75;16.75;;;;;4.52;77.54;101283.56;4967414;28;45513;-76
2023/01/21 01:47:59;;;;;;;;;14.50;14.50;;;;;4.51;77.25;101287.94;4962062;28;45546;-77
2023/01/21 01:50:29;;;;;;;;;18.50;18.50;;;;;4.51;77.44;101303.56;4973670;28;45440;-78
2023/01/21 01:52:57;;;;;;;;;16.00;16.00;;;;;4.52;77.05;101302.69;4973330;28;46039;-77
2023/01/21 01:55:23;;;;;;;;;18.25;18.25;;;;;4.43;76.46;101286.19;4974439;28;45456;-77
2023/01/21 01:57:53;;;;;;;;;17.75;17.75;;;;;4.43;75.66;101284.47;4972588;28;45402;-77
2023/01/21 02:00:19;;;;;;;;;18.00;18.00;;;;;4.48;74.93;101307.91;4974770;28;45275;-76
2023/01/21 02:03:43;;;;;;;;;16.00;15.50;;;;;4.47;75.40;101317.47;4974594;28;45409;-77
2023/01/21 02:05:34;;;;;;;;;13.75;13.75;;;;;4.48;74.29;101310.50;4974631;28;45287;-77
2023/01/21 02:08:00;;;;;;;;;15.00;14.00;;;;;4.47;73.68;101322.69;4973563;28;45565;-77
2023/01/21 02:10:26;;;;;;;;;13.50;13.50;;;;;4.48;73.94;101314.00;4974950;28;45672;-77
2023/01/21 02:12:51;;;;;;;;;14.75;14.75;;;;;4.51;73.90;101328.72;4975064;28;45307;-77
2023/01/21 02:15:17;;;;;;;;;16.25;16.25;;;;;4.45;74.24;101319.22;4974278;28;45449;-77
2023/01/21 02:18:10;;;;;;;;;17.00;17.00;;;;;4.57;74.11;101338.28;4973696;28;45576;-78
2023/01/21 02:20:47;;;;;;;;;16.00;16.00;;;;;4.60;74.05;101338.28;4974209;28;45452;-77
2023/01/21 02:23:36;;;;;;;;;18.00;17.50;;;;;4.60;73.54;101343.47;4975820;28;45295;-78
2023/01/21 02:26:36;;;;;;;;;15.75;15.75;;;;;4.59;74.09;101345.22;4974397;28;45352;-77
2023/01/21 02:29:17;;;;;;;;;16.75;16.75;;;;;4.57;73.26;101352.16;4973610;28;45488;-77
2023/01/21 02:32:03;;;;;;;;;16.50;16.50;;;;;4.29;72.74;101325.34;4974680;28;46591;-78
2023/01/21 02:34:56;;;;;;;;;15.00;14.25;;;;;4.52;72.91;101375.63;4974351;28;45539;-77
2023/01/21 02:37:39;;;;;;;;;17.25;17.00;;;;;4.50;72.81;101371.28;4969954;28;45268;-76
2023/01/21 02:40:28;;;;;;;;;12.25;12.25;;;;;4.54;72.17;101401.69;4955368;28;45344;-78
2023/01/21 02:43:11;;;;;;;;;13.50;13.50;;;;;4.21;71.34;101351.38;4955372;28;45505;-77
2023/01/21 02:45:46;;;;;;;;;16.75;16.25;;;;;4.34;71.79;101407.78;4962292;28;45413;-78
2023/01/21 02:48:25;;;;;;;;;12.25;12.25;;;;;4.26;71.24;101406.06;4974386;28;45255;-77
2023/01/21 02:50:52;;;;;;;;;12.25;12.25;;;;;4.18;71.39;101414.72;4974970;28;45405;-78
2023/01/21 02:53:27;;;;;;;;;15.00;15.00;;;;;4.14;71.17;101423.41;4974908;28;46305;-77
2023/01/21 02:55:53;;;;;;;;;16.25;16.25;;;;;4.16;71.58;101429.50;4973877;28;45429;-77
2023/01/21 02:58:26;;;;;;;;;16.00;16.00;;;;;4.05;71.47;101415.59;4974748;28;45237;-77
2023/01/21 03:01:30;;;;;;;;;17.25;16.75;;;;;4.08;70.78;101434.72;4974819;28;45495;-76
2023/01/21 03:04:48;;;;;;;;;17.25;17.00;;;;;4.02;70.67;101437.31;4974678;28;45402;-78
2023/01/21 03:07:24;;;;;;;;;7.00;7.00;;;;;3.91;70.03;101446.84;5034213;28;45420;-78
2023/01/21 03:09:51;;;;;;;;;19.00;19.00;;;;;3.79;70.99;101440.75;4972506;28;45316;-77
2023/01/21 03:12:16;;;;;;;;;21.25;20.75;;;;;3.80;70.67;101458.09;4973714;28;45235;-79
2023/01/21 03:17:54;;;;;;;;;16.75;15.50;;;;;3.75;70.36;101469.38;4953554;28;45397;-78
2023/01/21 03:20:35;;;;;;;;;17.25;17.25;;;;;3.63;69.31;101465.88;4977090;28;45381;-77
2023/01/21 03:23:05;;;;;;;;;18.00;18.00;;;;;3.57;69.14;101471.06;4976475;28;45359;-77
2023/01/21 03:25:33;;;;;;;;;21.75;21.75;;;;;3.44;69.08;101453.66;4974071;28;46438;-79
2023/01/21 03:28:03;;;;;;;;;22.25;20.25;;;;;3.56;69.29;101482.31;4977082;28;45356;-77
2023/01/21 03:30:32;;;;;;;;;23.75;21.25;;;;;3.44;68.46;101466.66;4977435;28;45292;-77
2023/01/21 03:33:00;;;;;;;;;15.25;15.25;;;;;3.48;68.32;101497.03;4977518;28;45516;-76
2023/01/21 03:35:30;;;;;;;;;19.75;19.75;;;;;3.43;67.67;101486.59;4974654;28;47763;-78
2023/01/21 03:38:14;;;;;;;;;12.75;12.75;;;;;3.42;68.21;101504.81;4976886;28;45331;-76
2023/01/21 03:40:46;;;;;;;;;21.00;19.25;;;;;3.41;67.66;101500.47;4976926;28;45231;-77
2023/01/21 03:43:11;;;;;;;;;15.25;15.25;;;;;3.35;67.84;101510.00;4977580;28;45564;-77
2023/01/21 03:45:41;;;;;;;;;22.25;22.25;;;;;3.32;67.94;101504.78;4976468;28;45699;-78
2023/01/21 03:48:16;;;;;;;;;23.00;23.00;;;;;3.22;67.48;101503.00;4977395;28;45223;-76
2023/01/21 03:50:49;;;;;;;;;19.50;19.00;;;;;3.28;67.91;101517.75;4977401;28;45223;-77
2023/01/21 03:53:15;;;;;;;;;20.75;20.75;;;;;3.28;68.34;101513.41;4978240;28;45339;-77
2023/01/21 03:55:40;;;;;;;;;19.75;19.75;;;;;3.28;68.10;101516.03;4976618;28;46140;-77
2023/01/21 03:58:06;;;;;;;;;19.75;19.75;;;;;3.21;67.91;101512.50;4977282;28;45307;-77
2023/01/21 04:00:31;;;;;;;;;25.25;24.50;;;;;3.14;67.79;101499.44;4976838;28;45251;-76
2023/01/21 04:02:56;;;;;;;;;24.50;24.50;;;;;3.19;68.27;101510.78;4976429;28;45627;-76
2023/01/21 04:05:21;;;;;;;;;25.00;25.00;;;;;3.18;67.93;101519.41;4976969;28;46249;-78
2023/01/21 04:07:47;;;;;;;;;28.50;26.00;;;;;3.22;68.30;101524.66;4977237;28;45398;-78
2023/01/21 04:10:12;;;;;;;;;27.25;27.25;;;;;3.23;68.24;101528.13;4976956;28;45348;-78
2023/01/21 04:12:37;;;;;;;;;26.75;25.25;;;;;3.11;67.46;101509.84;4976517;28;45212;-77
2023/01/21 04:15:03;;;;;;;;;23.00;23.00;;;;;3.18;67.86;101530.69;4975956;28;45415;-78
2023/01/21 04:17:29;;;;;;;;;22.25;22.25;;;;;3.13;67.98;101536.72;4975201;28;45534;-78
2023/01/21 04:19:54;;;;;;;;;24.50;23.50;;;;;3.11;67.23;101548.81;4976688;28;45501;-78
2023/01/21 04:22:19;;;;;;;;;26.00;25.50;;;;;2.99;67.95;101529.69;4975939;28;45638;-78
2023/01/21 04:24:45;;;;;;;;;27.75;27.75;;;;;3.03;67.91;101543.59;4976695;28;52201;-78
2023/01/21 04:27:10;;;;;;;;;27.75;27.75;;;;;2.81;67.69;101508.78;4975974;28;45421;-77
2023/01/21 04:29:36;;;;;;;;;26.50;25.50;;;;;3.00;67.82;101544.44;4976812;28;45318;-77
2023/01/21 04:32:01;;;;;;;;;24.75;24.75;;;;;3.00;68.40;101553.97;4976264;28;45407;-78
2023/01/21 04:34:26;;;;;;;;;30.25;29.00;;;;;3.06;67.30;101546.22;4976976;28;45507;-77
2023/01/21 04:36:52;;;;;;;;;21.75;21.25;;;;;2.98;68.41;101550.50;4976435;28;45268;-77
2023/01/21 04:39:17;;;;;;;;;28.75;26.75;;;;;2.88;68.05;101544.34;4977473;28;45401;-76
2023/01/21 04:41:42;;;;;;;;;22.75;22.75;;;;;2.81;67.63;101532.16;4977024;28;45316;-77
2023/01/21 04:44:08;;;;;;;;;26.00;26.00;;;;;2.77;68.43;101539.09;4976339;28;46374;-78
2023/01/21 04:46:33;;;;;;;;;19.25;19.25;;;;;2.75;67.61;101543.41;4976110;28;45200;-78
2023/01/21 04:48:58;;;;;;;;;33.00;30.00;;;;;2.77;67.70;101547.75;4976250;28;45618;-78
2023/01/21 04:51:24;;;;;;;;;24.25;24.25;;;;;2.70;68.88;101543.34;4975780;28;49230;-78
2023/01/21 04:53:49;;;;;;;;;24.50;24.50;;;;;2.67;68.31;101553.72;4975748;28;45523;-78
2023/01/21 04:56:14;;;;;;;;;29.00;27.25;;;;;2.58;68.70;101554.50;4976182;28;45740;-77
2023/01/21 04:58:40;;;;;;;;;25.25;25.25;;;;;2.54;68.37;101546.69;4976416;28;45820;-77
2023/01/21 05:01:05;;;;;;;;;27.50;27.50;;;;;2.28;68.22;101516.16;4977043;28;45497;-79
2023/01/21 05:03:30;;;;;;;;;23.00;22.50;;;;;2.46;68.33;101568.25;4975970;28;45873;-78
2023/01/21 05:05:56;;;;;;;;;23.25;21.50;;;;;2.36;68.68;101566.44;4975778;28;45448;-78
2023/01/21 05:08:21;;;;;;;;;25.25;25.25;;;;;2.32;69.22;101560.31;4975784;28;45229;-78
2023/01/21 05:10:46;;;;;;;;;27.50;27.50;;;;;2.36;69.04;101569.03;4977338;28;45239;-76
2023/01/21 05:13:12;;;;;;;;;28.00;26.75;;;;;2.36;69.09;101570.75;4975944;28;45364;-77
2023/01/21 05:15:37;;;;;;;;;25.75;22.00;;;;;2.32;69.01;101577.66;4973958;28;45569;-79
2023/01/21 05:18:03;;;;;;;;;28.00;27.00;;;;;2.21;68.40;101568.88;4974887;28;45486;-76
2023/01/21 05:20:28;;;;;;;;;14.50;13.00;;;;;2.14;69.17;101574.00;4976160;28;45616;-76
2023/01/21 05:22:53;;;;;;;;;24.75;24.75;;;;;2.10;69.21;101573.94;4975961;28;45481;-78
2023/01/21 05:25:19;;;;;;;;;25.25;25.00;;;;;2.01;69.39;101575.59;4975666;28;51805;-77
2023/01/21 05:27:50;;;;;;;;;24.75;23.75;;;;;2.02;69.37;101582.53;4977250;28;45334;-76
2023/01/21 05:30:15;;;;;;;;;25.50;25.50;;;;;2.01;70.12;101582.50;4976126;28;45231;-77
2023/01/21 05:32:41;;;;;;;;;20.50;20.50;;;;;1.95;69.96;101585.91;4974628;28;47898;-76
2023/01/21 05:35:06;;;;;;;;;27.75;25.00;;;;;1.90;69.27;101587.56;4975989;28;45247;-76
2023/01/21 05:37:32;;;;;;;;;29.50;28.75;;;;;1.74;70.14;101573.53;4975555;28;45316;-77
2023/01/21 05:39:57;;;;;;;;;27.25;27.25;;;;;1.78;70.35;101598.66;4975605;28;51567;-77
2023/01/21 05:42:22;;;;;;;;;24.75;22.75;;;;;1.73;70.22;101601.22;4974266;28;54807;-78
2023/01/21 05:44:48;;;;;;;;;28.50;28.50;;;;;1.63;70.40;101588.09;4975112;28;55871;-79
2023/01/21 05:47:13;;;;;;;;;22.25;21.50;;;;;1.69;70.33;101606.31;4975083;28;55904;-77
2023/01/21 05:49:38;;;;;;;;;27.75;26.75;;;;;1.64;69.87;101616.66;4975925;28;45511;-78
2023/01/21 05:52:04;;;;;;;;;29.75;29.00;;;;;1.62;70.01;101614.88;4976653;28;45638;-77
2023/01/21 05:54:30;;;;;;;;;29.50;28.50;;;;;1.53;70.87;101600.94;4974240;28;45555;-78
2023/01/21 05:56:55;;;;;;;;;31.00;29.75;;;;;1.51;70.26;101610.41;4973063;28;45409;-76
2023/01/21 05:59:21;;;;;;;;;30.75;28.75;;;;;1.51;71.52;101620.78;4973491;28;45730;-78
2023/01/21 06:01:46;;;;;;;;;33.75;30.00;;;;;1.40;70.79;101604.19;4974022;28;46410;-78
2023/01/21 06:04:11;;;;;;;;;30.00;28.50;;;;;1.43;71.65;101617.22;4974526;28;45366;-76
2023/01/21 06:06:36;;;;;;;;;34.00;32.75;;;;;1.45;71.32;101629.34;4974603;28;45329;-78
2023/01/21 06:09:02;;;;;;;;;31.00;31.00;;;;;1.34;71.78;101617.09;4974972;28;45508;-78
2023/01/21 06:11:27;;;;;;;;;28.75;25.50;;;;;1.43;71.64;101635.38;4988707;28;47138;-78
2023/01/21 06:13:53;;;;;;;;;28.50;28.25;;;;;1.42;72.37;101631.03;4974548;28;45296;-77
2023/01/21 06:16:18;;;;;;;;;31.75;31.75;;;;;1.39;71.79;101639.63;4972751;28;45432;-77
2023/01/21 06:18:43;;;;;;;;;34.00;32.00;;;;;1.30;72.07;101623.94;4973230;28;45195;-78
2023/01/21 06:21:09;;;;;;;;;31.25;30.50;;;;;1.31;72.10;101634.34;4971281;28;45393;-76
2023/01/21 06:23:34;;;;;;;;;32.00;31.50;;;;;1.31;72.38;101642.09;4972746;28;45242;-77
2023/01/21 06:26:00;;;;;;;;;37.00;35.75;;;;;1.31;72.77;101646.41;4972861;28;45175;-77
2023/01/21 06:28:26;;;;;;;;;36.00;35.50;;;;;1.16;72.70;101623.72;4973267;28;45657;-76
2023/01/21 06:30:52;;;;;;;;;34.00;33.00;;;;;1.26;72.42;101646.34;4972954;28;46631;-77
2023/01/21 06:33:17;;;;;;;;;32.00;32.00;;;;;1.27;73.18;101652.41;4973279;28;45293;-78
2023/01/21 06:35:42;;;;;;;;;30.50;30.50;;;;;1.24;72.87;101652.34;4973190;28;45446;-78
2023/01/21 06:38:08;;;;;;;;;30.00;29.00;;;;;1.17;73.28;101651.41;4973781;28;45490;-77
2023/01/21 06:40:33;;;;;;;;;36.50;36.25;;;;;1.06;72.85;101642.53;4972636;28;46306;-77
2023/01/21 06:42:58;;;;;;;;;31.75;31.75;;;;;1.07;73.29;101655.53;4972822;28;45486;-77
2023/01/21 06:45:24;;;;;;;;;36.50;35.50;;;;;1.05;73.06;101652.06;4972723;28;45307;-78
2023/01/21 06:47:49;;;;;;;;;32.50;32.50;;;;;1.14;73.74;101659.13;4973226;28;45296;-80
2023/01/21 06:50:16;;;;;;;;;36.25;36.25;;;;;1.13;74.11;101666.00;4973072;28;45946;-80
2023/01/21 06:52:44;;;;;;;;;37.75;37.25;;;;;1.06;74.02;101663.28;4971763;28;45406;-77
2023/01/21 06:55:10;;;;;;;;;32.75;30.25;;;;;1.05;73.82;101672.78;4974226;28;45501;-77
2023/01/21 06:57:37;;;;;;;;;32.00;30.00;;;;;1.06;74.32;101679.72;4976452;28;45335;-78
2023/01/21 07:00:04;;;;;;;;;34.00;32.75;;;;;0.96;74.09;101678.66;4976133;28;46261;-75
2023/01/21 07:02:29;;;;;;;;;35.25;34.25;;;;;1.01;74.30;101678.75;4975654;28;45589;-75
2023/01/21 07:04:55;;;;;;;;;39.50;36.75;;;;;0.83;74.40;101649.09;4976753;28;45506;-77
2023/01/21 07:07:20;;;;;;;;;39.50;37.50;;;;;1.06;74.12;101695.25;4977110;28;44798;-78
2023/01/21 07:09:45;;;;;;;;;36.25;35.50;;;;;1.00;74.80;101677.88;4976142;28;46289;-77
2023/01/21 07:12:11;;;;;;;;;35.00;32.50;;;;;1.10;74.64;101698.78;4974626;28;45347;-77
2023/01/21 07:14:36;;;;;;;;;42.25;38.50;;;;;1.06;74.36;101694.38;4976217;28;45812;-78
2023/01/21 07:17:01;;;;;;;;;36.00;35.00;;;;;0.98;74.47;101687.34;4975993;28;46048;-78
2023/01/21 07:19:27;;;;;;;;;35.00;34.50;;;;;1.12;74.15;101713.50;4974112;28;48756;-79
2023/01/21 07:21:53;;;;;;;;;43.50;39.25;;;;;1.15;74.75;101723.06;4973330;28;63720;-78
2023/01/21 07:24:18;;;;;;;;;45.00;40.25;;;;;1.15;74.54;101723.06;4975236;28;45294;-77
2023/01/21 07:26:44;;;;;;;;;38.50;36.50;;;;;1.14;74.29;101729.09;4975650;28;45289;-75
2023/01/21 07:29:09;;;;;;;;;39.75;38.25;;;;;1.18;74.66;101736.06;4975625;28;45374;-78
2023/01/21 07:31:35;;;;;;;;;41.75;37.75;;;;;1.21;74.27;101737.84;4975110;28;45520;-78
2023/01/21 07:34:01;;;;;;;;;45.25;41.25;;;;;1.26;74.67;101744.84;4975693;28;45533;-78
2023/01/21 07:36:26;;;;;;;;;44.00;39.75;;;;;1.26;74.52;101746.56;4976898;28;45316;-79
2023/01/21 07:38:52;;;;;;;;;54.00;45.50;;;;;1.24;74.69;101743.97;4976041;28;46285;-78
2023/01/21 07:41:17;;;;;;;;;44.00;39.25;;;;;1.25;75.21;101750.88;4975830;28;45355;-79
2023/01/21 07:43:45;;;;;;;;;40.00;39.00;;;;;1.25;74.54;101747.41;4974066;28;54345;-78
2023/01/21 07:46:10;;;;;;;;;43.50;38.75;;;;;1.20;74.19;101752.53;4976355;28;45615;-76
2023/01/21 07:48:35;;;;;;;;;45.25;40.25;;;;;1.10;74.65;101743.69;4975252;28;46280;-78
2023/01/21 07:51:01;;;;;;;;;42.75;38.00;;;;;1.23;74.48;101762.06;4974902;28;46144;-77
2023/01/21 07:53:26;;;;;;;;;45.50;41.75;;;;;1.19;74.70;101768.94;4975230;28;45370;-78
2023/01/21 07:55:51;;;;;;;;;48.00;42.25;;;;;1.12;75.14;101760.16;4974993;28;45526;-77
2023/01/21 07:58:17;;;;;;;;;54.25;43.25;;;;;1.16;75.17;101779.25;4974942;27;45297;-77
2023/01/21 08:00:42;;;;;;;;;50.00;43.25;;;;;1.18;75.13;101782.72;4976429;28;45367;-77
2023/01/21 08:03:07;;;;;;;;;40.00;38.00;;;;;1.13;74.73;101779.19;4974129;28;45313;-78
2023/01/21 08:05:33;;;;;;;;;51.75;42.75;;;;;1.02;74.84;101776.38;4974635;28;45298;-79
2023/01/21 08:07:58;;;;;;;;;53.00;43.75;;;;;1.11;75.04;101786.91;4975047;28;46419;-79
2023/01/21 08:10:24;;;;;;;;;32.75;31.75;;;;;1.12;75.11;101783.47;4975020;28;45576;-77
2023/01/21 08:12:49;;;;;;;;;51.75;43.50;;;;;1.14;75.25;101789.56;4975017;28;45232;-78
2023/01/21 08:15:15;;;;;;;;;56.50;45.25;;;;;1.13;75.06;101799.91;4973789;28;45554;-79
2023/01/21 08:17:45;;;;;;;;;51.75;43.00;;;;;1.08;75.12;101804.16;4975062;28;47278;-78
2023/01/21 08:20:11;;;;;;;;;48.00;43.50;;;;;1.08;75.04;101802.41;4975007;27;45413;-77
2023/01/21 08:22:36;;;;;;;;;54.50;46.50;;;;;1.09;75.49;101804.16;4974982;28;45336;-77
2023/01/21 08:25:04;;;;;;;;;45.25;37.75;;;;;1.11;75.00;101806.78;4974428;28;45525;-80
2023/01/21 08:27:30;;;;;;;;;51.25;44.00;;;;;1.09;75.43;101803.28;4974460;28;46266;-78
2023/01/21 08:29:55;;;;;;;;;39.25;38.00;;;;;1.10;75.00;101811.09;4974651;28;45242;-77
2023/01/21 08:32:21;;;;;;;;;50.50;44.25;;;;;1.11;74.91;101815.41;4973950;28;45276;-78
2023/01/21 08:34:46;;;;;;;;;48.75;44.00;;;;;1.10;74.67;101815.41;4975207;28;45213;-76
2023/01/21 08:37:12;;;;;;;;;59.00;48.50;;;;;1.11;75.31;101818.00;4974581;28;45353;-78
2023/01/21 08:39:37;;;;;;;;;49.50;42.50;;;;;1.09;75.08;101817.13;4974499;28;45209;-77
2023/01/21 08:42:03;;;;;;;;;52.50;44.00;;;;;1.17;74.79;101832.81;4974687;28;45363;-77
2023/01/21 08:44:28;;;;;;;;;47.50;41.25;;;;;1.19;75.25;101831.13;4974522;28;45358;-79
2023/01/21 08:46:54;;;;;;;;;55.25;46.25;;;;;1.24;74.79;101824.31;4972933;28;46878;-79
2023/01/21 08:49:21;;;;;;;;;53.75;46.00;;;;;1.23;74.75;101830.34;4974209;28;45351;-79
2023/01/21 08:51:47;;;;;;;;;56.00;44.25;;;;;1.27;74.23;101839.03;4975177;28;45309;-76
2023/01/21 08:54:12;;;;;;;;;48.25;43.00;;;;;1.29;74.39;101843.41;4954451;28;45452;-77
2023/01/21 08:56:37;;;;;;;;;48.75;41.75;;;;;1.25;74.84;101831.25;4958417;28;55005;-78
2023/01/21 08:59:03;;;;;;;;;58.25;48.25;;;;;1.30;74.22;101832.19;4969755;28;45354;-79
2023/01/21 09:01:28;;;;;;;;;52.00;45.50;;;;;1.38;73.88;101844.44;4955524;28;45405;-77
2023/01/21 09:03:59;;;;;;;;;52.50;44.00;;;;;1.40;74.01;101848.78;4970213;28;45458;-78
2023/01/21 09:06:26;;;;;;;;;54.00;45.50;;;;;1.26;73.65;101814.84;4989484;28;45437;-78
2023/01/21 09:08:52;;;;;;;;;58.50;49.50;;;;;1.35;74.02;101842.63;4974538;28;45308;-78
2023/01/21 09:11:18;;;;;;;;;49.75;43.75;;;;;1.46;74.41;101850.63;4973566;28;45269;-78
2023/01/21 09:13:44;;;;;;;;;56.50;49.50;;;;;1.35;73.51;101836.59;4974569;28;45469;-78
2023/01/21 09:16:12;;;;;;;;;56.50;45.00;;;;;1.35;73.54;101840.03;4990164;28;46189;-75
2023/01/21 09:18:38;;;;;;;;;49.75;42.00;;;;;1.44;73.52;101868.72;4954197;28;45344;-76
2023/01/21 09:21:05;;;;;;;;;52.00;45.50;;;;;1.43;73.81;101866.13;4956123;28;45486;-76
2023/01/21 09:23:33;;;;;;;;;53.25;45.75;;;;;1.45;73.86;101862.69;4966538;28;45501;-79
2023/01/21 09:26:06;;;;;;;;;59.50;48.75;;;;;1.43;73.50;101874.75;4975502;28;46071;-77
2023/01/21 09:28:41;;;;;;;;;63.00;50.25;;;;;1.41;73.73;101867.81;4974978;28;45393;-78
2023/01/21 09:31:10;;;;;;;;;47.25;41.75;;;;;1.36;73.06;101874.63;4973147;28;45433;-79
2023/01/21 09:33:38;;;;;;;;;45.50;40.50;;;;;1.36;73.30;101877.22;4974325;28;45437;-78
2023/01/21 09:36:05;;;;;;;;;49.75;44.75;;;;;1.29;73.67;101869.34;4972474;28;46497;-77
2023/01/21 09:38:32;;;;;;;;;54.50;46.25;;;;;1.27;73.90;101873.63;4974164;27;45423;-79
2023/01/21 09:41:20;;;;;;;;;78.25;62.50;;;;;1.49;73.60;101893.88;4974293;28;45318;-77
2023/01/21 09:44:00;;;;;;;;;43.50;40.75;;;;;1.54;73.61;101903.50;4974134;28;45476;-78
2023/01/21 09:46:38;;;;;;;;;59.00;45.75;;;;;1.63;73.30;101904.53;4973982;28;45340;-77
2023/01/21 09:49:10;;;;;;;;;57.75;49.00;;;;;1.73;72.92;101904.72;4973857;28;45374;-78
2023/01/21 09:51:48;;;;;;;;;57.75;48.25;;;;;1.77;73.05;101894.41;4974085;28;45433;-77
2023/01/21 09:54:25;;;;;;;;;49.50;43.75;;;;;1.94;73.09;101905.06;4974180;28;45488;-77
2023/01/21 09:57:04;;;;;;;;;69.75;57.25;;;;;1.95;71.85;101909.41;4974203;28;45380;-78
2023/01/21 09:59:46;;;;;;;;;61.25;50.75;;;;;2.03;72.27;101923.38;4973972;28;45421;-77
2023/01/21 10:03:06;;;;;;;;;55.50;46.50;;;;;2.10;72.76;101927.81;4974055;28;45235;-79
2023/01/21 10:05:37;;;;;;;;;58.75;48.00;;;;;2.14;71.19;101937.44;4896689;28;45648;-77
2023/01/21 10:08:11;;;;;;;;;55.00;44.00;;;;;2.15;71.77;101948.69;4947605;28;45889;-77
2023/01/21 10:10:50;;;;;;;;;46.50;41.25;;;;;2.17;71.15;101954.78;4955050;28;45292;-76
2023/01/21 10:13:33;;;;;;;;;54.25;43.25;;;;;2.21;71.53;101940.13;4964362;28;45314;-76
2023/01/21 10:16:18;;;;;;;;;52.00;44.50;;;;;2.19;70.80;101928.00;4988986;28;45536;-78
2023/01/21 10:18:49;;;;;;;;;58.25;47.25;;;;;2.39;70.58;101956.00;4974155;28;46537;-78
2023/01/21 10:21:22;;;;;;;;;59.50;51.50;;;;;2.46;70.51;101954.38;4973193;28;45292;-79
2023/01/21 10:23:58;;;;;;;;;58.00;47.50;;;;;2.48;70.62;101950.06;4973431;28;45427;-78
2023/01/21 10:26:27;;;;;;;;;54.50;45.25;;;;;2.55;70.57;101948.44;4972814;28;45344;-77
2023/01/21 10:28:54;;;;;;;;;59.25;49.25;;;;;2.47;69.36;101951.81;4973911;28;45499;-76
2023/01/21 10:31:27;;;;;;;;;57.00;46.50;;;;;2.61;70.17;101977.13;4975441;28;45522;-77
2023/01/21 10:33:53;;;;;;;;;60.50;49.25;;;;;2.63;69.32;101965.88;4975914;28;45546;-78
2023/01/21 10:36:18;;;;;;;;;60.50;49.00;;;;;2.69;69.18;101956.47;5007660;28;45497;-77
2023/01/21 10:38:54;;;;;;;;;64.50;53.00;;;;;2.76;70.12;101961.75;4981657;28;46918;-78
2023/01/21 10:41:49;;;;;;;;;57.00;47.75;;;;;2.84;68.72;101954.09;4991691;28;45526;-75
2023/01/21 10:44:52;;;;;;;;;53.50;45.25;;;;;2.92;69.09;101939.47;4974901;28;45578;-78
2023/01/21 10:47:17;;;;;;;;;40.75;38.25;;;;;2.98;68.99;101948.19;5068108;28;45308;-77
2023/01/21 10:50:01;;;;;;;;;59.00;50.25;;;;;2.97;68.19;101949.06;5047675;27;46223;-78
2023/01/21 10:52:45;;;;;;;;;52.00;44.50;;;;;3.00;67.89;101957.75;4960814;28;45178;-77
2023/01/21 10:55:32;;;;;;;;;50.25;42.00;;;;;3.00;68.40;101943.88;5067981;28;45482;-75
2023/01/21 10:58:28;;;;;;;;;53.25;45.25;;;;;2.92;68.17;101931.66;5002546;28;45369;-78
2023/01/21 11:00:57;;;;;;;;;45.75;40.00;;;;;2.94;67.90;101951.59;4978520;28;45198;-82
2023/01/21 11:03:44;;;;;;;;;61.75;50.00;;;;;2.57;68.38;101894.78;4975751;28;45378;-76
2023/01/21 11:06:14;;;;;;;;;50.00;42.00;;;;;2.82;68.07;101936.69;4952188;28;45340;-78
2023/01/21 11:08:43;;;;;;;;;52.00;44.50;;;;;2.90;68.52;101950.69;4975040;28;45535;-76
2023/01/21 11:11:09;;;;;;;;;54.00;44.50;;;;;2.84;67.94;101951.47;4972421;28;46397;-81
2023/01/21 11:13:34;;;;;;;;;54.00;45.25;;;;;2.91;67.65;101965.41;4974292;27;45499;-79
2023/01/21 11:16:00;;;;;;;;;49.25;41.25;;;;;2.92;67.75;101969.75;4971401;28;45176;-80
2023/01/21 11:18:35;;;;;;;;;46.25;41.00;;;;;2.98;67.94;101976.78;4972803;28;45405;-77
2023/01/21 11:21:22;;;;;;;;;45.25;41.00;;;;;3.05;68.38;101969.06;4963211;28;48006;-75
2023/01/21 11:23:54;;;;;;;;;45.75;41.00;;;;;3.19;67.65;101979.69;4978429;28;45416;-77
2023/01/21 11:26:24;;;;;;;;;51.00;43.50;;;;;3.31;68.31;101965.97;4964713;28;45483;-75
2023/01/21 11:29:23;;;;;;;;;49.25;41.75;;;;;3.47;67.85;101980.00;4960596;28;45476;-75
2023/01/21 11:32:22;;;;;;;;;88.67;76.00;;;;;3.60;67.21;101967.13;4972544;28;45257;-78
2023/01/21 11:34:50;;;;;;;;;56.25;45.75;;;;;3.64;66.24;101962.00;4993459;28;45262;-74